createdAt,value
2022-08-03T00:02:13.575Z,11.75
2022-08-03T00:17:16.189Z,18.73
2022-08-03T00:32:18.141Z,29.67
2022-08-03T00:47:24.533Z,19.95
2022-08-03T01:02:27.648Z,18.05
2022-08-03T01:17:40.273Z,17.17
2022-08-03T01:33:01.016Z,16.17
2022-08-03T01:48:06.588Z,17.02
2022-08-03T02:03:11.909Z,16.70
2022-08-03T02:18:15.428Z,17.33
2022-08-03T02:33:27.616Z,15.38
2022-08-03T02:48:33.216Z,15.45
2022-08-03T03:03:39.976Z,15.00
2022-08-03T03:18:49.990Z,17.05
2022-08-03T03:33:51.957Z,17.67
2022-08-03T03:48:54.181Z,17.15
2022-08-03T04:03:56.098Z,17.30
2022-08-03T04:19:10.717Z,16.20
2022-08-03T04:34:12.795Z,14.50
2022-08-03T04:49:15.340Z,17.30
2022-08-03T05:04:17.340Z,19.40
2022-08-03T05:19:19.317Z,19.47
2022-08-03T05:34:21.183Z,14.07
2022-08-03T05:49:23.812Z,13.07
2022-08-03T06:04:25.709Z,12.60
2022-08-03T06:19:27.720Z,13.83
2022-08-03T06:34:32.733Z,14.13
2022-08-03T06:49:38.677Z,12.43
2022-08-03T07:04:40.667Z,11.13
2022-08-03T07:19:42.601Z,11.85
2022-08-03T07:34:44.481Z,11.40
2022-08-03T07:49:46.697Z,11.60
2022-08-03T08:04:48.598Z,9.52
2022-08-03T08:19:51.749Z,8.50
2022-08-03T08:34:55.486Z,8.90
2022-08-03T08:50:09.914Z,9.65
2022-08-03T09:05:18.228Z,13.55
2022-08-03T09:20:22.010Z,9.55
2022-08-03T09:35:51.558Z,10.25
2022-08-03T09:50:57.026Z,8.48
2022-08-03T10:06:15.611Z,7.57
2022-08-03T10:21:19.984Z,7.03
2022-08-03T10:36:24.712Z,5.93
2022-08-03T10:51:32.405Z,5.00
2022-08-03T11:06:37.278Z,4.63
2022-08-03T11:21:52.367Z,2.92
2022-08-03T11:37:21.851Z,2.90
2022-08-03T11:52:27.153Z,3.10
2022-08-03T12:08:03.128Z,2.40
2022-08-03T12:22:53.249Z,2.17
2022-08-03T12:37:55.277Z,2.30
2022-08-03T12:52:58.858Z,2.10
2022-08-03T13:08:00.947Z,2.10
2022-08-03T13:23:03.134Z,2.00
2022-08-03T13:38:05.075Z,2.30
2022-08-03T13:53:07.209Z,2.08
2022-08-03T14:08:09.286Z,2.28
2022-08-03T14:23:11.291Z,3.20
2022-08-03T14:38:15.074Z,2.20
2022-08-03T14:53:20.131Z,2.20
2022-08-03T15:08:23.645Z,2.40
2022-08-03T15:23:26.578Z,5.00
2022-08-03T15:38:28.544Z,2.80
2022-08-03T15:53:30.645Z,3.45
2022-08-03T16:08:32.720Z,3.70
2022-08-03T16:38:40.000Z,6.28
2022-08-03T16:54:05.798Z,3.70
2022-08-03T17:09:09.833Z,3.97
2022-08-03T17:24:31.441Z,4.25
2022-08-03T17:55:56.534Z,5.73
2022-08-03T18:10:49.697Z,5.40
2022-08-03T18:25:57.908Z,5.67
2022-08-03T18:41:00.190Z,5.63
2022-08-03T18:56:24.472Z,5.73
2022-08-03T19:12:12.553Z,5.20
2022-08-03T19:27:01.449Z,5.27
2022-08-03T19:57:37.253Z,5.03
2022-08-03T20:12:39.798Z,5.10
2022-08-03T20:43:07.349Z,4.90
2022-08-03T20:58:14.449Z,5.80
2022-08-03T21:13:02.803Z,4.82
2022-08-03T21:13:28.326Z,5.28
2022-08-03T21:28:30.401Z,5.50
2022-08-03T21:43:32.280Z,5.13
2022-08-03T21:58:44.997Z,5.77
2022-08-03T22:13:53.252Z,5.80
2022-08-03T22:28:57.536Z,6.23
2022-08-03T22:43:59.787Z,6.63
2022-08-03T22:59:40.729Z,6.50
2022-08-03T23:14:41.544Z,5.88
2022-08-03T23:29:44.090Z,6.72
2022-08-03T23:44:46.792Z,6.47
